sensor_id;sensor_type;location;lat;lon;timestamp;temperature;humidity
84114;DHT22;74483;48.846;2.358;2024-02-28T00:02:06;21.70;22.00
84114;DHT22;74483;48.846;2.358;2024-02-28T00:04:32;21.70;22.00
84114;DHT22;74483;48.846;2.358;2024-02-28T00:06:57;21.70;22.00
84114;DHT22;74483;48.846;2.358;2024-02-28T00:09:24;21.70;22.00
84114;DHT22;74483;48.846;2.358;2024-02-28T00:11:49;21.70;22.00
84114;DHT22;74483;48.846;2.358;2024-02-28T00:14:15;21.70;22.00
84114;DHT22;74483;48.846;2.358;2024-02-28T00:16:42;21.70;22.00
84114;DHT22;74483;48.846;2.358;2024-02-28T00:19:08;21.70;22.00
84114;DHT22;74483;48.846;2.358;2024-02-28T00:21:34;21.70;22.00
84114;DHT22;74483;48.846;2.358;2024-02-28T00:23:59;21.70;22.00
84114;DHT22;74483;48.846;2.358;2024-02-28T00:26:25;21.70;22.00
84114;DHT22;74483;48.846;2.358;2024-02-28T00:28:50;21.70;22.00
84114;DHT22;74483;48.846;2.358;2024-02-28T00:31:16;21.70;22.00
84114;DHT22;74483;48.846;2.358;2024-02-28T00:33:42;21.70;22.00
84114;DHT22;74483;48.846;2.358;2024-02-28T00:36:07;21.70;22.00
84114;DHT22;74483;48.846;2.358;2024-02-28T00:38:33;21.70;22.00
84114;DHT22;74483;48.846;2.358;2024-02-28T00:40:59;21.60;21.90
84114;DHT22;74483;48.846;2.358;2024-02-28T00:43:24;21.70;21.90
84114;DHT22;74483;48.846;2.358;2024-02-28T00:45:50;21.70;21.90
84114;DHT22;74483;48.846;2.358;2024-02-28T00:48:16;21.70;22.00
84114;DHT22;74483;48.846;2.358;2024-02-28T00:50:41;21.60;21.90
84114;DHT22;74483;48.846;2.358;2024-02-28T00:53:07;21.60;21.90
84114;DHT22;74483;48.846;2.358;2024-02-28T00:55:32;21.60;21.90
84114;DHT22;74483;48.846;2.358;2024-02-28T00:57:58;21.60;21.90
84114;DHT22;74483;48.846;2.358;2024-02-28T01:00:23;21.60;21.90
84114;DHT22;74483;48.846;2.358;2024-02-28T01:02:49;21.60;21.90
84114;DHT22;74483;48.846;2.358;2024-02-28T01:05:14;21.60;21.90
84114;DHT22;74483;48.846;2.358;2024-02-28T01:07:40;21.60;21.90
84114;DHT22;74483;48.846;2.358;2024-02-28T01:10:07;21.60;21.90
84114;DHT22;74483;48.846;2.358;2024-02-28T01:12:32;21.70;21.90
84114;DHT22;74483;48.846;2.358;2024-02-28T01:14:58;21.60;21.90
84114;DHT22;74483;48.846;2.358;2024-02-28T01:17:24;21.60;21.90
84114;DHT22;74483;48.846;2.358;2024-02-28T01:19:49;21.60;21.90
84114;DHT22;74483;48.846;2.358;2024-02-28T01:22:15;21.60;21.90
84114;DHT22;74483;48.846;2.358;2024-02-28T01:24:40;21.60;21.90
84114;DHT22;74483;48.846;2.358;2024-02-28T01:27:06;21.60;21.90
84114;DHT22;74483;48.846;2.358;2024-02-28T01:29:31;21.60;21.90
84114;DHT22;74483;48.846;2.358;2024-02-28T01:31:57;21.60;21.90
84114;DHT22;74483;48.846;2.358;2024-02-28T01:34:23;21.60;21.90
84114;DHT22;74483;48.846;2.358;2024-02-28T01:36:49;21.60;21.80
84114;DHT22;74483;48.846;2.358;2024-02-28T01:39:14;21.60;21.90
84114;DHT22;74483;48.846;2.358;2024-02-28T01:41:40;21.60;21.90
84114;DHT22;74483;48.846;2.358;2024-02-28T01:44:08;21.60;21.80
84114;DHT22;74483;48.846;2.358;2024-02-28T01:46:34;21.60;21.80
84114;DHT22;74483;48.846;2.358;2024-02-28T01:49:00;21.60;21.80
84114;DHT22;74483;48.846;2.358;2024-02-28T01:51:26;21.60;21.80
84114;DHT22;74483;48.846;2.358;2024-02-28T01:53:53;21.60;21.90
84114;DHT22;74483;48.846;2.358;2024-02-28T01:56:20;21.60;21.80
84114;DHT22;74483;48.846;2.358;2024-02-28T01:58:47;21.60;21.80
84114;DHT22;74483;48.846;2.358;2024-02-28T02:01:16;21.60;21.80
84114;DHT22;74483;48.846;2.358;2024-02-28T02:03:45;21.60;21.80
84114;DHT22;74483;48.846;2.358;2024-02-28T02:06:11;21.60;21.80
84114;DHT22;74483;48.846;2.358;2024-02-28T02:08:38;21.60;21.90
84114;DHT22;74483;48.846;2.358;2024-02-28T02:11:04;21.60;21.80
84114;DHT22;74483;48.846;2.358;2024-02-28T02:13:30;21.50;21.80
84114;DHT22;74483;48.846;2.358;2024-02-28T02:15:56;21.60;22.50
84114;DHT22;74483;48.846;2.358;2024-02-28T02:18:22;21.60;21.80
84114;DHT22;74483;48.846;2.358;2024-02-28T02:20:50;21.50;21.80
84114;DHT22;74483;48.846;2.358;2024-02-28T02:23:19;21.60;21.80
84114;DHT22;74483;48.846;2.358;2024-02-28T02:25:48;21.60;21.80
84114;DHT22;74483;48.846;2.358;2024-02-28T02:28:15;21.60;21.80
84114;DHT22;74483;48.846;2.358;2024-02-28T02:30:41;21.60;21.80
84114;DHT22;74483;48.846;2.358;2024-02-28T02:33:07;21.60;21.80
84114;DHT22;74483;48.846;2.358;2024-02-28T02:35:34;21.60;21.80
84114;DHT22;74483;48.846;2.358;2024-02-28T02:38:00;21.50;21.80
84114;DHT22;74483;48.846;2.358;2024-02-28T02:40:25;21.50;21.80
84114;DHT22;74483;48.846;2.358;2024-02-28T02:42:51;21.50;21.80
84114;DHT22;74483;48.846;2.358;2024-02-28T02:45:16;21.50;21.80
84114;DHT22;74483;48.846;2.358;2024-02-28T02:47:42;21.50;21.70
84114;DHT22;74483;48.846;2.358;2024-02-28T02:50:09;21.50;21.70
84114;DHT22;74483;48.846;2.358;2024-02-28T02:52:36;21.50;21.70
84114;DHT22;74483;48.846;2.358;2024-02-28T02:55:02;21.50;21.80
84114;DHT22;74483;48.846;2.358;2024-02-28T02:57:27;21.50;21.80
84114;DHT22;74483;48.846;2.358;2024-02-28T02:59:53;21.50;21.70
84114;DHT22;74483;48.846;2.358;2024-02-28T03:02:18;21.50;21.70
84114;DHT22;74483;48.846;2.358;2024-02-28T03:04:44;21.50;21.70
84114;DHT22;74483;48.846;2.358;2024-02-28T03:07:10;21.50;21.70
84114;DHT22;74483;48.846;2.358;2024-02-28T03:09:35;21.50;21.80
84114;DHT22;74483;48.846;2.358;2024-02-28T03:12:01;21.50;21.70
84114;DHT22;74483;48.846;2.358;2024-02-28T03:14:26;21.50;21.70
84114;DHT22;74483;48.846;2.358;2024-02-28T03:16:53;21.50;21.80
84114;DHT22;74483;48.846;2.358;2024-02-28T03:19:19;21.50;21.70
84114;DHT22;74483;48.846;2.358;2024-02-28T03:21:46;21.50;21.70
84114;DHT22;74483;48.846;2.358;2024-02-28T03:24:11;21.50;21.70
84114;DHT22;74483;48.846;2.358;2024-02-28T03:26:37;21.50;21.70
84114;DHT22;74483;48.846;2.358;2024-02-28T03:29:02;21.50;21.70
84114;DHT22;74483;48.846;2.358;2024-02-28T03:31:28;21.50;21.70
84114;DHT22;74483;48.846;2.358;2024-02-28T03:33:54;21.50;21.70
84114;DHT22;74483;48.846;2.358;2024-02-28T03:36:20;21.50;21.70
84114;DHT22;74483;48.846;2.358;2024-02-28T03:38:45;21.50;21.70
84114;DHT22;74483;48.846;2.358;2024-02-28T03:41:11;21.50;21.70
84114;DHT22;74483;48.846;2.358;2024-02-28T03:43:37;21.50;21.70
84114;DHT22;74483;48.846;2.358;2024-02-28T03:46:02;21.50;21.70
84114;DHT22;74483;48.846;2.358;2024-02-28T03:48:28;21.50;21.70
84114;DHT22;74483;48.846;2.358;2024-02-28T03:50:53;21.50;21.70
84114;DHT22;74483;48.846;2.358;2024-02-28T03:53:19;21.50;21.70
84114;DHT22;74483;48.846;2.358;2024-02-28T03:55:45;21.50;21.70
84114;DHT22;74483;48.846;2.358;2024-02-28T03:58:11;21.50;21.70
84114;DHT22;74483;48.846;2.358;2024-02-28T04:00:36;21.50;21.70
84114;DHT22;74483;48.846;2.358;2024-02-28T04:03:03;21.50;21.70
84114;DHT22;74483;48.846;2.358;2024-02-28T04:05:28;21.50;21.70
84114;DHT22;74483;48.846;2.358;2024-02-28T04:07:54;21.50;21.70
84114;DHT22;74483;48.846;2.358;2024-02-28T04:10:20;21.50;21.70
84114;DHT22;74483;48.846;2.358;2024-02-28T04:12:46;21.50;21.70
84114;DHT22;74483;48.846;2.358;2024-02-28T04:15:12;21.50;21.60
84114;DHT22;74483;48.846;2.358;2024-02-28T04:17:38;21.50;21.60
84114;DHT22;74483;48.846;2.358;2024-02-28T04:20:10;21.40;21.60
84114;DHT22;74483;48.846;2.358;2024-02-28T04:22:36;21.50;21.60
84114;DHT22;74483;48.846;2.358;2024-02-28T04:25:06;21.40;21.50
84114;DHT22;74483;48.846;2.358;2024-02-28T04:27:33;21.40;21.60
84114;DHT22;74483;48.846;2.358;2024-02-28T04:29:59;21.40;21.60
84114;DHT22;74483;48.846;2.358;2024-02-28T04:32:24;21.40;21.60
84114;DHT22;74483;48.846;2.358;2024-02-28T04:34:50;21.50;21.60
84114;DHT22;74483;48.846;2.358;2024-02-28T04:37:15;21.40;22.20
84114;DHT22;74483;48.846;2.358;2024-02-28T04:39:41;21.40;21.50
84114;DHT22;74483;48.846;2.358;2024-02-28T04:42:07;21.40;21.60
84114;DHT22;74483;48.846;2.358;2024-02-28T04:44:33;21.40;21.50
84114;DHT22;74483;48.846;2.358;2024-02-28T04:46:58;21.40;21.50
84114;DHT22;74483;48.846;2.358;2024-02-28T04:49:24;21.40;21.50
84114;DHT22;74483;48.846;2.358;2024-02-28T04:51:49;21.50;21.60
84114;DHT22;74483;48.846;2.358;2024-02-28T04:54:15;21.40;21.50
84114;DHT22;74483;48.846;2.358;2024-02-28T04:56:41;21.40;21.50
84114;DHT22;74483;48.846;2.358;2024-02-28T04:59:08;21.40;21.50
84114;DHT22;74483;48.846;2.358;2024-02-28T05:01:33;21.40;21.50
84114;DHT22;74483;48.846;2.358;2024-02-28T05:04:00;21.40;21.50
84114;DHT22;74483;48.846;2.358;2024-02-28T05:06:26;21.40;21.50
84114;DHT22;74483;48.846;2.358;2024-02-28T05:08:52;21.40;21.50
84114;DHT22;74483;48.846;2.358;2024-02-28T05:11:17;21.40;21.50
84114;DHT22;74483;48.846;2.358;2024-02-28T05:13:43;21.40;21.50
84114;DHT22;74483;48.846;2.358;2024-02-28T05:16:13;21.40;21.50
84114;DHT22;74483;48.846;2.358;2024-02-28T05:18:38;21.40;21.50
84114;DHT22;74483;48.846;2.358;2024-02-28T05:21:04;21.40;21.50
84114;DHT22;74483;48.846;2.358;2024-02-28T05:23:29;21.40;21.60
84114;DHT22;74483;48.846;2.358;2024-02-28T05:25:56;21.40;21.50
84114;DHT22;74483;48.846;2.358;2024-02-28T05:28:23;21.40;21.50
84114;DHT22;74483;48.846;2.358;2024-02-28T05:30:48;21.40;21.50
84114;DHT22;74483;48.846;2.358;2024-02-28T05:33:14;21.40;21.50
84114;DHT22;74483;48.846;2.358;2024-02-28T05:35:40;21.40;21.50
84114;DHT22;74483;48.846;2.358;2024-02-28T05:38:05;21.40;21.50
84114;DHT22;74483;48.846;2.358;2024-02-28T05:40:31;21.40;21.50
84114;DHT22;74483;48.846;2.358;2024-02-28T05:42:56;21.40;21.50
84114;DHT22;74483;48.846;2.358;2024-02-28T05:45:22;21.40;21.50
84114;DHT22;74483;48.846;2.358;2024-02-28T05:47:47;21.40;21.50
84114;DHT22;74483;48.846;2.358;2024-02-28T05:50:13;21.40;21.50
84114;DHT22;74483;48.846;2.358;2024-02-28T05:52:42;21.40;21.40
84114;DHT22;74483;48.846;2.358;2024-02-28T05:55:08;21.40;21.40
84114;DHT22;74483;48.846;2.358;2024-02-28T05:57:33;21.40;21.40
84114;DHT22;74483;48.846;2.358;2024-02-28T05:59:59;21.40;21.50
84114;DHT22;74483;48.846;2.358;2024-02-28T06:02:25;21.40;21.40
84114;DHT22;74483;48.846;2.358;2024-02-28T06:04:50;21.40;21.40
84114;DHT22;74483;48.846;2.358;2024-02-28T06:07:16;21.40;21.40
84114;DHT22;74483;48.846;2.358;2024-02-28T06:09:42;21.40;21.40
84114;DHT22;74483;48.846;2.358;2024-02-28T06:12:07;21.40;21.50
84114;DHT22;74483;48.846;2.358;2024-02-28T06:14:33;21.40;21.40
84114;DHT22;74483;48.846;2.358;2024-02-28T06:16:58;21.40;21.40
84114;DHT22;74483;48.846;2.358;2024-02-28T06:19:24;21.40;21.40
84114;DHT22;74483;48.846;2.358;2024-02-28T06:21:49;21.40;21.40
84114;DHT22;74483;48.846;2.358;2024-02-28T06:24:15;21.40;22.10
84114;DHT22;74483;48.846;2.358;2024-02-28T06:26:41;21.40;21.40
84114;DHT22;74483;48.846;2.358;2024-02-28T06:29:08;21.50;21.50
84114;DHT22;74483;48.846;2.358;2024-02-28T06:31:34;21.40;21.40
84114;DHT22;74483;48.846;2.358;2024-02-28T06:33:59;21.40;21.30
84114;DHT22;74483;48.846;2.358;2024-02-28T06:36:25;21.40;21.30
84114;DHT22;74483;48.846;2.358;2024-02-28T06:38:51;21.50;21.40
84114;DHT22;74483;48.846;2.358;2024-02-28T06:41:16;21.50;21.40
84114;DHT22;74483;48.846;2.358;2024-02-28T06:43:42;21.50;21.70
84114;DHT22;74483;48.846;2.358;2024-02-28T06:46:08;21.50;21.30
84114;DHT22;74483;48.846;2.358;2024-02-28T06:48:34;21.50;21.30
84114;DHT22;74483;48.846;2.358;2024-02-28T06:51:00;21.50;21.30
84114;DHT22;74483;48.846;2.358;2024-02-28T06:53:26;21.50;21.30
84114;DHT22;74483;48.846;2.358;2024-02-28T06:55:51;21.60;21.20
84114;DHT22;74483;48.846;2.358;2024-02-28T06:58:17;21.60;21.30
84114;DHT22;74483;48.846;2.358;2024-02-28T07:00:43;21.50;21.20
84114;DHT22;74483;48.846;2.358;2024-02-28T07:03:08;21.60;21.90
84114;DHT22;74483;48.846;2.358;2024-02-28T07:05:34;21.60;21.20
84114;DHT22;74483;48.846;2.358;2024-02-28T07:08:00;21.60;21.20
84114;DHT22;74483;48.846;2.358;2024-02-28T07:10:26;21.60;21.10
84114;DHT22;74483;48.846;2.358;2024-02-28T07:12:51;21.60;21.10
84114;DHT22;74483;48.846;2.358;2024-02-28T07:15:17;21.60;21.10
84114;DHT22;74483;48.846;2.358;2024-02-28T07:17:47;21.60;21.00
84114;DHT22;74483;48.846;2.358;2024-02-28T07:20:12;21.60;21.00
84114;DHT22;74483;48.846;2.358;2024-02-28T07:22:38;21.60;21.00
84114;DHT22;74483;48.846;2.358;2024-02-28T07:25:05;21.60;21.00
84114;DHT22;74483;48.846;2.358;2024-02-28T07:27:31;21.70;21.00
84114;DHT22;74483;48.846;2.358;2024-02-28T07:29:56;21.70;21.00
84114;DHT22;74483;48.846;2.358;2024-02-28T07:32:22;21.70;21.00
84114;DHT22;74483;48.846;2.358;2024-02-28T07:34:48;21.70;21.00
84114;DHT22;74483;48.846;2.358;2024-02-28T07:37:14;21.70;21.00
84114;DHT22;74483;48.846;2.358;2024-02-28T07:39:40;21.70;21.00
84114;DHT22;74483;48.846;2.358;2024-02-28T07:42:05;21.70;20.90
84114;DHT22;74483;48.846;2.358;2024-02-28T07:44:31;21.70;20.90
84114;DHT22;74483;48.846;2.358;2024-02-28T07:47:00;21.80;20.80
84114;DHT22;74483;48.846;2.358;2024-02-28T07:49:25;21.80;20.80
84114;DHT22;74483;48.846;2.358;2024-02-28T07:51:51;21.80;20.90
84114;DHT22;74483;48.846;2.358;2024-02-28T07:54:17;21.80;20.80
84114;DHT22;74483;48.846;2.358;2024-02-28T07:56:43;21.90;20.80
84114;DHT22;74483;48.846;2.358;2024-02-28T07:59:09;21.90;20.80
84114;DHT22;74483;48.846;2.358;2024-02-28T08:01:35;21.90;20.80
84114;DHT22;74483;48.846;2.358;2024-02-28T08:04:01;21.90;20.70
84114;DHT22;74483;48.846;2.358;2024-02-28T08:06:27;21.90;20.70
84114;DHT22;74483;48.846;2.358;2024-02-28T08:08:53;22.00;20.70
84114;DHT22;74483;48.846;2.358;2024-02-28T08:11:18;22.00;20.60
84114;DHT22;74483;48.846;2.358;2024-02-28T08:13:44;22.00;20.90
84114;DHT22;74483;48.846;2.358;2024-02-28T08:16:10;22.00;20.50
84114;DHT22;74483;48.846;2.358;2024-02-28T08:18:36;22.10;20.60
84114;DHT22;74483;48.846;2.358;2024-02-28T08:21:01;22.10;20.60
84114;DHT22;74483;48.846;2.358;2024-02-28T08:23:31;22.10;20.50
84114;DHT22;74483;48.846;2.358;2024-02-28T08:25:56;22.10;20.50
84114;DHT22;74483;48.846;2.358;2024-02-28T08:28:22;22.10;20.50
84114;DHT22;74483;48.846;2.358;2024-02-28T08:30:48;22.20;20.40
84114;DHT22;74483;48.846;2.358;2024-02-28T08:33:14;22.20;20.40
84114;DHT22;74483;48.846;2.358;2024-02-28T08:35:40;22.20;20.30
84114;DHT22;74483;48.846;2.358;2024-02-28T08:38:08;22.30;20.40
84114;DHT22;74483;48.846;2.358;2024-02-28T08:40:34;22.30;20.40
84114;DHT22;74483;48.846;2.358;2024-02-28T08:42:59;22.30;20.40
84114;DHT22;74483;48.846;2.358;2024-02-28T08:45:25;22.30;20.40
84114;DHT22;74483;48.846;2.358;2024-02-28T08:47:50;22.30;20.40
84114;DHT22;74483;48.846;2.358;2024-02-28T08:50:16;22.40;20.30
84114;DHT22;74483;48.846;2.358;2024-02-28T08:52:42;22.40;20.30
84114;DHT22;74483;48.846;2.358;2024-02-28T08:55:08;22.40;20.30
84114;DHT22;74483;48.846;2.358;2024-02-28T08:57:33;22.40;20.10
84114;DHT22;74483;48.846;2.358;2024-02-28T08:59:59;22.50;20.20
84114;DHT22;74483;48.846;2.358;2024-02-28T09:02:25;22.50;20.10
84114;DHT22;74483;48.846;2.358;2024-02-28T09:04:51;22.50;20.10
84114;DHT22;74483;48.846;2.358;2024-02-28T09:07:18;22.60;20.00
84114;DHT22;74483;48.846;2.358;2024-02-28T09:09:47;22.70;20.00
84114;DHT22;74483;48.846;2.358;2024-02-28T09:12:13;22.70;20.00
84114;DHT22;74483;48.846;2.358;2024-02-28T09:14:39;22.80;19.90
84114;DHT22;74483;48.846;2.358;2024-02-28T09:17:04;22.90;19.90
84114;DHT22;74483;48.846;2.358;2024-02-28T09:19:30;22.90;20.30
84114;DHT22;74483;48.846;2.358;2024-02-28T09:21:56;23.00;19.70
84114;DHT22;74483;48.846;2.358;2024-02-28T09:24:23;23.10;19.60
84114;DHT22;74483;48.846;2.358;2024-02-28T09:26:49;23.20;19.40
84114;DHT22;74483;48.846;2.358;2024-02-28T09:29:15;23.30;19.30
84114;DHT22;74483;48.846;2.358;2024-02-28T09:31:41;23.40;19.10
84114;DHT22;74483;48.846;2.358;2024-02-28T09:34:06;23.40;19.10
84114;DHT22;74483;48.846;2.358;2024-02-28T09:36:44;23.50;19.10
84114;DHT22;74483;48.846;2.358;2024-02-28T09:39:14;23.60;18.90
84114;DHT22;74483;48.846;2.358;2024-02-28T09:41:43;23.60;18.90
84114;DHT22;74483;48.846;2.358;2024-02-28T09:44:09;23.70;19.00
84114;DHT22;74483;48.846;2.358;2024-02-28T09:46:35;23.60;18.90
84114;DHT22;74483;48.846;2.358;2024-02-28T09:49:07;23.70;19.00
84114;DHT22;74483;48.846;2.358;2024-02-28T09:51:33;23.70;19.00
84114;DHT22;74483;48.846;2.358;2024-02-28T09:54:03;23.60;18.90
84114;DHT22;74483;48.846;2.358;2024-02-28T09:56:29;23.60;19.00
84114;DHT22;74483;48.846;2.358;2024-02-28T09:58:55;23.60;19.00
84114;DHT22;74483;48.846;2.358;2024-02-28T10:01:25;23.60;19.00
84114;DHT22;74483;48.846;2.358;2024-02-28T10:03:52;23.60;19.00
84114;DHT22;74483;48.846;2.358;2024-02-28T10:06:19;23.70;19.00
84114;DHT22;74483;48.846;2.358;2024-02-28T10:08:45;23.70;19.00
84114;DHT22;74483;48.846;2.358;2024-02-28T10:11:21;23.80;18.90
84114;DHT22;74483;48.846;2.358;2024-02-28T10:13:50;23.80;18.90
84114;DHT22;74483;48.846;2.358;2024-02-28T10:16:17;23.80;18.90
84114;DHT22;74483;48.846;2.358;2024-02-28T10:18:43;23.80;18.80
84114;DHT22;74483;48.846;2.358;2024-02-28T10:21:10;23.90;18.80
84114;DHT22;74483;48.846;2.358;2024-02-28T10:23:37;23.90;18.80
84114;DHT22;74483;48.846;2.358;2024-02-28T10:26:03;24.00;18.60
84114;DHT22;74483;48.846;2.358;2024-02-28T10:28:29;24.20;18.50
84114;DHT22;74483;48.846;2.358;2024-02-28T10:30:55;24.30;18.30
84114;DHT22;74483;48.846;2.358;2024-02-28T10:33:20;24.30;18.30
84114;DHT22;74483;48.846;2.358;2024-02-28T10:35:50;24.40;18.10
84114;DHT22;74483;48.846;2.358;2024-02-28T10:38:17;24.50;18.10
84114;DHT22;74483;48.846;2.358;2024-02-28T10:40:43;24.60;18.00
84114;DHT22;74483;48.846;2.358;2024-02-28T10:43:09;24.60;18.00
84114;DHT22;74483;48.846;2.358;2024-02-28T10:45:38;24.60;18.10
84114;DHT22;74483;48.846;2.358;2024-02-28T10:48:05;24.50;18.10
84114;DHT22;74483;48.846;2.358;2024-02-28T10:50:32;24.50;18.20
84114;DHT22;74483;48.846;2.358;2024-02-28T10:53:02;24.50;18.20
84114;DHT22;74483;48.846;2.358;2024-02-28T10:55:33;24.40;18.20
84114;DHT22;74483;48.846;2.358;2024-02-28T10:58:04;24.40;18.30
84114;DHT22;74483;48.846;2.358;2024-02-28T11:00:34;24.40;18.30
84114;DHT22;74483;48.846;2.358;2024-02-28T11:03:01;24.40;18.40
84114;DHT22;74483;48.846;2.358;2024-02-28T11:05:38;24.40;18.40
84114;DHT22;74483;48.846;2.358;2024-02-28T11:08:11;24.30;18.30
84114;DHT22;74483;48.846;2.358;2024-02-28T11:10:41;24.30;18.40
84114;DHT22;74483;48.846;2.358;2024-02-28T11:13:24;24.30;18.40
84114;DHT22;74483;48.846;2.358;2024-02-28T11:15:51;24.30;18.50
84114;DHT22;74483;48.846;2.358;2024-02-28T11:18:16;24.30;18.50
84114;DHT22;74483;48.846;2.358;2024-02-28T11:20:43;24.30;18.60
84114;DHT22;74483;48.846;2.358;2024-02-28T11:23:11;24.30;18.50
84114;DHT22;74483;48.846;2.358;2024-02-28T11:25:37;24.30;18.60
84114;DHT22;74483;48.846;2.358;2024-02-28T11:28:04;24.30;19.10
84114;DHT22;74483;48.846;2.358;2024-02-28T11:30:29;24.30;18.60
84114;DHT22;74483;48.846;2.358;2024-02-28T11:32:56;24.30;18.60
84114;DHT22;74483;48.846;2.358;2024-02-28T11:35:27;24.30;18.60
84114;DHT22;74483;48.846;2.358;2024-02-28T11:37:57;24.30;18.60
84114;DHT22;74483;48.846;2.358;2024-02-28T11:40:25;24.30;18.70
84114;DHT22;74483;48.846;2.358;2024-02-28T11:42:54;24.30;18.60
84114;DHT22;74483;48.846;2.358;2024-02-28T11:45:21;24.30;18.60
84114;DHT22;74483;48.846;2.358;2024-02-28T11:47:46;24.30;18.70
84114;DHT22;74483;48.846;2.358;2024-02-28T11:50:13;24.30;18.70
84114;DHT22;74483;48.846;2.358;2024-02-28T11:52:40;24.20;18.70
84114;DHT22;74483;48.846;2.358;2024-02-28T11:55:06;24.30;18.70
84114;DHT22;74483;48.846;2.358;2024-02-28T11:57:31;24.20;18.70
84114;DHT22;74483;48.846;2.358;2024-02-28T12:00:06;24.20;18.70
84114;DHT22;74483;48.846;2.358;2024-02-28T12:02:32;24.20;18.70
84114;DHT22;74483;48.846;2.358;2024-02-28T12:05:05;24.20;18.70
84114;DHT22;74483;48.846;2.358;2024-02-28T12:07:31;24.20;18.70
84114;DHT22;74483;48.846;2.358;2024-02-28T12:09:58;24.20;18.80
84114;DHT22;74483;48.846;2.358;2024-02-28T12:12:23;24.20;18.70
84114;DHT22;74483;48.846;2.358;2024-02-28T12:14:50;24.20;18.80
84114;DHT22;74483;48.846;2.358;2024-02-28T12:17:16;24.10;18.80
84114;DHT22;74483;48.846;2.358;2024-02-28T12:19:41;24.10;18.80
84114;DHT22;74483;48.846;2.358;2024-02-28T12:22:08;24.10;18.80
84114;DHT22;74483;48.846;2.358;2024-02-28T12:24:34;24.10;19.40
84114;DHT22;74483;48.846;2.358;2024-02-28T12:27:00;24.10;18.90
84114;DHT22;74483;48.846;2.358;2024-02-28T12:29:25;24.00;18.90
84114;DHT22;74483;48.846;2.358;2024-02-28T12:31:51;24.00;18.90
84114;DHT22;74483;48.846;2.358;2024-02-28T12:34:17;24.00;18.90
84114;DHT22;74483;48.846;2.358;2024-02-28T12:36:42;24.00;18.90
84114;DHT22;74483;48.846;2.358;2024-02-28T12:39:08;24.00;18.90
84114;DHT22;74483;48.846;2.358;2024-02-28T12:41:40;24.00;18.90
84114;DHT22;74483;48.846;2.358;2024-02-28T12:44:06;24.00;19.40
84114;DHT22;74483;48.846;2.358;2024-02-28T12:46:33;24.00;18.90
84114;DHT22;74483;48.846;2.358;2024-02-28T12:48:58;24.00;18.90
84114;DHT22;74483;48.846;2.358;2024-02-28T12:51:41;24.00;19.00
84114;DHT22;74483;48.846;2.358;2024-02-28T12:54:08;24.00;18.90
84114;DHT22;74483;48.846;2.358;2024-02-28T12:56:37;24.00;19.00
84114;DHT22;74483;48.846;2.358;2024-02-28T12:59:04;24.00;18.90
84114;DHT22;74483;48.846;2.358;2024-02-28T13:01:32;24.00;18.90
84114;DHT22;74483;48.846;2.358;2024-02-28T13:03:58;24.00;18.90
84114;DHT22;74483;48.846;2.358;2024-02-28T13:06:23;24.00;18.90
84114;DHT22;74483;48.846;2.358;2024-02-28T13:08:49;24.00;18.90
84114;DHT22;74483;48.846;2.358;2024-02-28T13:11:19;24.00;18.90
84114;DHT22;74483;48.846;2.358;2024-02-28T13:13:47;24.00;18.90
84114;DHT22;74483;48.846;2.358;2024-02-28T13:16:12;24.00;18.90
84114;DHT22;74483;48.846;2.358;2024-02-28T13:18:38;24.10;19.00
84114;DHT22;74483;48.846;2.358;2024-02-28T13:21:04;24.00;18.90
84114;DHT22;74483;48.846;2.358;2024-02-28T13:23:31;24.10;19.00
84114;DHT22;74483;48.846;2.358;2024-02-28T13:25:57;24.10;19.00
84114;DHT22;74483;48.846;2.358;2024-02-28T13:28:22;24.10;18.90
84114;DHT22;74483;48.846;2.358;2024-02-28T13:31:01;24.10;18.90
84114;DHT22;74483;48.846;2.358;2024-02-28T13:33:27;24.10;18.90
84114;DHT22;74483;48.846;2.358;2024-02-28T13:35:54;24.10;18.90
84114;DHT22;74483;48.846;2.358;2024-02-28T13:38:20;24.10;18.90
84114;DHT22;74483;48.846;2.358;2024-02-28T13:40:49;24.10;18.90
84114;DHT22;74483;48.846;2.358;2024-02-28T13:43:15;24.10;18.90
84114;DHT22;74483;48.846;2.358;2024-02-28T13:45:46;24.10;18.90
84114;DHT22;74483;48.846;2.358;2024-02-28T13:48:22;24.10;18.90
84114;DHT22;74483;48.846;2.358;2024-02-28T13:50:50;24.10;18.90
84114;DHT22;74483;48.846;2.358;2024-02-28T13:53:20;24.10;19.00
84114;DHT22;74483;48.846;2.358;2024-02-28T13:55:48;24.10;19.00
84114;DHT22;74483;48.846;2.358;2024-02-28T13:58:15;24.10;19.00
84114;DHT22;74483;48.846;2.358;2024-02-28T14:00:44;24.00;19.40
84114;DHT22;74483;48.846;2.358;2024-02-28T14:03:11;24.00;18.90
84114;DHT22;74483;48.846;2.358;2024-02-28T14:05:36;24.00;19.00
84114;DHT22;74483;48.846;2.358;2024-02-28T14:08:02;24.00;18.90
84114;DHT22;74483;48.846;2.358;2024-02-28T14:10:34;24.00;18.90
84114;DHT22;74483;48.846;2.358;2024-02-28T14:13:00;24.10;19.00
84114;DHT22;74483;48.846;2.358;2024-02-28T14:15:26;24.10;19.00
84114;DHT22;74483;48.846;2.358;2024-02-28T14:17:52;24.00;19.00
84114;DHT22;74483;48.846;2.358;2024-02-28T14:20:18;24.10;19.00
84114;DHT22;74483;48.846;2.358;2024-02-28T14:22:44;24.10;19.10
84114;DHT22;74483;48.846;2.358;2024-02-28T14:25:14;24.00;19.00
84114;DHT22;74483;48.846;2.358;2024-02-28T14:27:41;24.10;19.10
84114;DHT22;74483;48.846;2.358;2024-02-28T14:30:09;24.00;19.00
84114;DHT22;74483;48.846;2.358;2024-02-28T14:32:36;24.00;19.00
84114;DHT22;74483;48.846;2.358;2024-02-28T14:35:03;24.00;19.00
84114;DHT22;74483;48.846;2.358;2024-02-28T14:37:30;24.00;19.10
84114;DHT22;74483;48.846;2.358;2024-02-28T14:39:56;24.00;19.10
84114;DHT22;74483;48.846;2.358;2024-02-28T14:42:22;24.00;19.10
84114;DHT22;74483;48.846;2.358;2024-02-28T14:44:47;24.00;19.10
84114;DHT22;74483;48.846;2.358;2024-02-28T14:47:13;24.00;19.10
84114;DHT22;74483;48.846;2.358;2024-02-28T14:49:39;24.00;19.10
84114;DHT22;74483;48.846;2.358;2024-02-28T14:52:04;23.90;19.10
84114;DHT22;74483;48.846;2.358;2024-02-28T14:54:30;23.90;19.10
84114;DHT22;74483;48.846;2.358;2024-02-28T14:56:55;23.90;19.20
84114;DHT22;74483;48.846;2.358;2024-02-28T14:59:21;24.00;19.20
84114;DHT22;74483;48.846;2.358;2024-02-28T15:01:49;24.00;19.20
84114;DHT22;74483;48.846;2.358;2024-02-28T15:04:17;23.90;19.20
84114;DHT22;74483;48.846;2.358;2024-02-28T15:06:43;23.90;19.20
84114;DHT22;74483;48.846;2.358;2024-02-28T15:09:08;23.90;19.30
84114;DHT22;74483;48.846;2.358;2024-02-28T15:11:34;23.90;19.20
84114;DHT22;74483;48.846;2.358;2024-02-28T15:14:00;23.90;19.30
84114;DHT22;74483;48.846;2.358;2024-02-28T15:16:26;23.90;19.30
84114;DHT22;74483;48.846;2.358;2024-02-28T15:18:51;23.90;19.40
84114;DHT22;74483;48.846;2.358;2024-02-28T15:21:18;23.90;19.90
84114;DHT22;74483;48.846;2.358;2024-02-28T15:23:44;23.80;19.30
84114;DHT22;74483;48.846;2.358;2024-02-28T15:26:09;23.80;19.30